sensor_id;sensor_type;location;lat;lon;timestamp;P1;durP1;ratioP1;P2;durP2;ratioP2
66145;SDS011;52948;60.040;30.320;2023-07-08T00:03:04;3.35;;;1.95;;
66145;SDS011;52948;60.040;30.320;2023-07-08T00:08:13;2.05;;;1.45;;
66145;SDS011;52948;60.040;30.320;2023-07-08T00:13:16;1.98;;;1.70;;
66145;SDS011;52948;60.040;30.320;2023-07-08T00:18:20;2.03;;;1.83;;
66145;SDS011;52948;60.040;30.320;2023-07-08T00:23:22;1.70;;;1.60;;
66145;SDS011;52948;60.040;30.320;2023-07-08T00:28:25;2.25;;;1.90;;
66145;SDS011;52948;60.040;30.320;2023-07-08T00:33:29;3.05;;;1.52;;
66145;SDS011;52948;60.040;30.320;2023-07-08T00:38:31;4.57;;;2.00;;
66145;SDS011;52948;60.040;30.320;2023-07-08T00:48:43;2.92;;;1.85;;
66145;SDS011;52948;60.040;30.320;2023-07-08T00:53:46;1.77;;;1.67;;
66145;SDS011;52948;60.040;30.320;2023-07-08T01:04:00;3.17;;;2.00;;
66145;SDS011;52948;60.040;30.320;2023-07-08T01:09:05;2.10;;;1.77;;
66145;SDS011;52948;60.040;30.320;2023-07-08T01:14:11;2.33;;;1.90;;
66145;SDS011;52948;60.040;30.320;2023-07-08T01:19:16;4.20;;;1.55;;
66145;SDS011;52948;60.040;30.320;2023-07-08T01:24:19;4.13;;;1.95;;
66145;SDS011;52948;60.040;30.320;2023-07-08T01:29:21;2.88;;;1.58;;
66145;SDS011;52948;60.040;30.320;2023-07-08T01:34:25;3.80;;;2.10;;
66145;SDS011;52948;60.040;30.320;2023-07-08T01:39:28;3.70;;;1.75;;
66145;SDS011;52948;60.040;30.320;2023-07-08T01:44:32;2.97;;;2.05;;
66145;SDS011;52948;60.040;30.320;2023-07-08T01:49:36;2.92;;;1.63;;
66145;SDS011;52948;60.040;30.320;2023-07-08T01:54:39;2.53;;;1.38;;
66145;SDS011;52948;60.040;30.320;2023-07-08T01:59:41;3.47;;;2.58;;
66145;SDS011;52948;60.040;30.320;2023-07-08T02:04:44;5.60;;;2.30;;
66145;SDS011;52948;60.040;30.320;2023-07-08T02:09:48;2.58;;;1.88;;
66145;SDS011;52948;60.040;30.320;2023-07-08T02:14:50;3.00;;;1.67;;
66145;SDS011;52948;60.040;30.320;2023-07-08T02:19:53;2.38;;;1.70;;
66145;SDS011;52948;60.040;30.320;2023-07-08T02:24:55;3.97;;;1.92;;
66145;SDS011;52948;60.040;30.320;2023-07-08T02:29:58;3.08;;;1.80;;
66145;SDS011;52948;60.040;30.320;2023-07-08T02:35:01;3.90;;;2.15;;
66145;SDS011;52948;60.040;30.320;2023-07-08T02:40:05;2.55;;;1.65;;
66145;SDS011;52948;60.040;30.320;2023-07-08T02:45:08;4.90;;;1.73;;
66145;SDS011;52948;60.040;30.320;2023-07-08T02:50:11;2.92;;;2.20;;
66145;SDS011;52948;60.040;30.320;2023-07-08T02:55:13;2.20;;;1.85;;
66145;SDS011;52948;60.040;30.320;2023-07-08T03:00:16;2.80;;;1.73;;
66145;SDS011;52948;60.040;30.320;2023-07-08T03:05:18;4.00;;;1.95;;
66145;SDS011;52948;60.040;30.320;2023-07-08T03:10:21;3.28;;;1.98;;
66145;SDS011;52948;60.040;30.320;2023-07-08T03:15:23;3.22;;;1.80;;
66145;SDS011;52948;60.040;30.320;2023-07-08T03:20:26;2.03;;;1.83;;
66145;SDS011;52948;60.040;30.320;2023-07-08T03:25:28;3.25;;;1.90;;
66145;SDS011;52948;60.040;30.320;2023-07-08T03:30:31;4.40;;;2.15;;
66145;SDS011;52948;60.040;30.320;2023-07-08T03:35:34;5.22;;;2.22;;
66145;SDS011;52948;60.040;30.320;2023-07-08T03:40:37;1.70;;;1.50;;
66145;SDS011;52948;60.040;30.320;2023-07-08T03:45:39;5.88;;;2.45;;
66145;SDS011;52948;60.040;30.320;2023-07-08T03:50:43;2.67;;;1.83;;
66145;SDS011;52948;60.040;30.320;2023-07-08T03:55:45;2.55;;;1.60;;
66145;SDS011;52948;60.040;30.320;2023-07-08T04:00:48;3.55;;;1.75;;
66145;SDS011;52948;60.040;30.320;2023-07-08T04:05:50;3.33;;;1.98;;
66145;SDS011;52948;60.040;30.320;2023-07-08T04:10:53;4.70;;;1.98;;
66145;SDS011;52948;60.040;30.320;2023-07-08T04:15:59;5.82;;;2.72;;
66145;SDS011;52948;60.040;30.320;2023-07-08T04:21:03;3.17;;;2.20;;
66145;SDS011;52948;60.040;30.320;2023-07-08T04:26:05;3.42;;;1.95;;
66145;SDS011;52948;60.040;30.320;2023-07-08T04:31:07;3.50;;;2.10;;
66145;SDS011;52948;60.040;30.320;2023-07-08T04:36:11;4.30;;;2.50;;
66145;SDS011;52948;60.040;30.320;2023-07-08T04:41:15;2.47;;;2.03;;
66145;SDS011;52948;60.040;30.320;2023-07-08T04:46:19;2.95;;;2.08;;
66145;SDS011;52948;60.040;30.320;2023-07-08T04:51:37;2.33;;;1.95;;
66145;SDS011;52948;60.040;30.320;2023-07-08T05:01:43;3.08;;;2.05;;
66145;SDS011;52948;60.040;30.320;2023-07-08T05:06:46;5.43;;;2.00;;
66145;SDS011;52948;60.040;30.320;2023-07-08T05:11:48;4.90;;;2.00;;
66145;SDS011;52948;60.040;30.320;2023-07-08T05:16:51;5.53;;;1.90;;
66145;SDS011;52948;60.040;30.320;2023-07-08T05:21:53;4.57;;;2.17;;
66145;SDS011;52948;60.040;30.320;2023-07-08T05:26:56;4.60;;;2.30;;
66145;SDS011;52948;60.040;30.320;2023-07-08T05:31:58;4.80;;;1.95;;
66145;SDS011;52948;60.040;30.320;2023-07-08T05:37:00;3.30;;;1.50;;
66145;SDS011;52948;60.040;30.320;2023-07-08T05:42:03;2.40;;;1.95;;
66145;SDS011;52948;60.040;30.320;2023-07-08T05:47:05;2.85;;;1.33;;
66145;SDS011;52948;60.040;30.320;2023-07-08T05:52:07;2.97;;;1.90;;
66145;SDS011;52948;60.040;30.320;2023-07-08T05:57:12;3.75;;;1.73;;
66145;SDS011;52948;60.040;30.320;2023-07-08T06:02:15;5.03;;;1.80;;
66145;SDS011;52948;60.040;30.320;2023-07-08T06:07:17;3.22;;;1.75;;
66145;SDS011;52948;60.040;30.320;2023-07-08T06:12:19;1.88;;;1.30;;
66145;SDS011;52948;60.040;30.320;2023-07-08T06:17:21;2.97;;;1.60;;
66145;SDS011;52948;60.040;30.320;2023-07-08T06:22:24;4.93;;;1.50;;
66145;SDS011;52948;60.040;30.320;2023-07-08T06:27:26;4.07;;;2.08;;
66145;SDS011;52948;60.040;30.320;2023-07-08T06:32:30;1.63;;;1.23;;
66145;SDS011;52948;60.040;30.320;2023-07-08T06:37:32;3.72;;;1.50;;
66145;SDS011;52948;60.040;30.320;2023-07-08T06:42:34;2.75;;;1.40;;
66145;SDS011;52948;60.040;30.320;2023-07-08T06:47:59;3.83;;;2.00;;
66145;SDS011;52948;60.040;30.320;2023-07-08T06:53:02;1.75;;;1.27;;
66145;SDS011;52948;60.040;30.320;2023-07-08T06:58:04;2.33;;;1.40;;
66145;SDS011;52948;60.040;30.320;2023-07-08T07:03:06;6.72;;;1.70;;
66145;SDS011;52948;60.040;30.320;2023-07-08T07:08:09;1.40;;;1.30;;
66145;SDS011;52948;60.040;30.320;2023-07-08T07:13:11;2.55;;;1.42;;
66145;SDS011;52948;60.040;30.320;2023-07-08T07:18:13;1.42;;;1.33;;
66145;SDS011;52948;60.040;30.320;2023-07-08T07:23:16;4.50;;;1.58;;
66145;SDS011;52948;60.040;30.320;2023-07-08T07:28:18;1.40;;;1.30;;
66145;SDS011;52948;60.040;30.320;2023-07-08T07:33:21;1.33;;;1.23;;
66145;SDS011;52948;60.040;30.320;2023-07-08T07:38:23;1.73;;;0.98;;
66145;SDS011;52948;60.040;30.320;2023-07-08T07:48:32;2.45;;;1.40;;
66145;SDS011;52948;60.040;30.320;2023-07-08T07:53:34;3.55;;;1.48;;
66145;SDS011;52948;60.040;30.320;2023-07-08T07:58:36;2.38;;;1.25;;
66145;SDS011;52948;60.040;30.320;2023-07-08T08:03:39;3.75;;;1.50;;
66145;SDS011;52948;60.040;30.320;2023-07-08T08:08:41;2.38;;;1.30;;
66145;SDS011;52948;60.040;30.320;2023-07-08T08:13:43;1.58;;;1.27;;
66145;SDS011;52948;60.040;30.320;2023-07-08T08:18:45;1.10;;;1.00;;
66145;SDS011;52948;60.040;30.320;2023-07-08T08:23:47;1.63;;;1.10;;
66145;SDS011;52948;60.040;30.320;2023-07-08T08:28:50;1.35;;;1.23;;
66145;SDS011;52948;60.040;30.320;2023-07-08T08:33:52;2.15;;;1.30;;
66145;SDS011;52948;60.040;30.320;2023-07-08T08:38:54;2.75;;;1.17;;
66145;SDS011;52948;60.040;30.320;2023-07-08T08:43:57;1.92;;;1.20;;
66145;SDS011;52948;60.040;30.320;2023-07-08T08:54:54;3.05;;;1.20;;
66145;SDS011;52948;60.040;30.320;2023-07-08T08:59:57;4.50;;;1.38;;
66145;SDS011;52948;60.040;30.320;2023-07-08T09:05:04;1.35;;;1.20;;
66145;SDS011;52948;60.040;30.320;2023-07-08T09:10:11;3.17;;;1.35;;
66145;SDS011;52948;60.040;30.320;2023-07-08T09:15:18;2.38;;;1.48;;
66145;SDS011;52948;60.040;30.320;2023-07-08T09:20:27;2.00;;;1.58;;
66145;SDS011;52948;60.040;30.320;2023-07-08T09:30:36;2.53;;;1.83;;
66145;SDS011;52948;60.040;30.320;2023-07-08T09:35:40;1.60;;;1.48;;
66145;SDS011;52948;60.040;30.320;2023-07-08T09:40:47;4.22;;;1.58;;
66145;SDS011;52948;60.040;30.320;2023-07-08T09:45:51;3.63;;;1.50;;
66145;SDS011;52948;60.040;30.320;2023-07-08T09:50:54;3.55;;;1.60;;
66145;SDS011;52948;60.040;30.320;2023-07-08T09:55:59;3.30;;;1.70;;
66145;SDS011;52948;60.040;30.320;2023-07-08T10:01:05;2.53;;;1.70;;
66145;SDS011;52948;60.040;30.320;2023-07-08T10:06:24;3.00;;;1.50;;
66145;SDS011;52948;60.040;30.320;2023-07-08T10:11:29;2.13;;;1.48;;
66145;SDS011;52948;60.040;30.320;2023-07-08T10:16:33;3.45;;;1.65;;
66145;SDS011;52948;60.040;30.320;2023-07-08T10:21:36;2.28;;;1.90;;
66145;SDS011;52948;60.040;30.320;2023-07-08T10:26:41;4.32;;;1.58;;
66145;SDS011;52948;60.040;30.320;2023-07-08T10:36:59;2.92;;;1.50;;
66145;SDS011;52948;60.040;30.320;2023-07-08T10:47:53;3.53;;;2.10;;
66145;SDS011;52948;60.040;30.320;2023-07-08T11:14:20;1.85;;;1.70;;
66145;SDS011;52948;60.040;30.320;2023-07-08T11:19:27;2.05;;;1.83;;
66145;SDS011;52948;60.040;30.320;2023-07-08T11:29:49;3.65;;;1.80;;
66145;SDS011;52948;60.040;30.320;2023-07-08T11:34:55;2.87;;;2.07;;
66145;SDS011;52948;60.040;30.320;2023-07-08T11:39:58;3.08;;;2.00;;
66145;SDS011;52948;60.040;30.320;2023-07-08T11:45:05;2.10;;;1.83;;
66145;SDS011;52948;60.040;30.320;2023-07-08T11:50:36;4.13;;;1.80;;
66145;SDS011;52948;60.040;30.320;2023-07-08T12:01:23;3.70;;;2.08;;
66145;SDS011;52948;60.040;30.320;2023-07-08T12:11:33;1.88;;;1.45;;
66145;SDS011;52948;60.040;30.320;2023-07-08T12:16:36;6.38;;;3.28;;
66145;SDS011;52948;60.040;30.320;2023-07-08T12:21:38;2.15;;;1.65;;
66145;SDS011;52948;60.040;30.320;2023-07-08T12:26:43;1.70;;;1.38;;
66145;SDS011;52948;60.040;30.320;2023-07-08T12:31:45;2.72;;;1.42;;
66145;SDS011;52948;60.040;30.320;2023-07-08T12:36:48;3.97;;;1.75;;
66145;SDS011;52948;60.040;30.320;2023-07-08T12:41:50;5.90;;;1.60;;
66145;SDS011;52948;60.040;30.320;2023-07-08T12:46:53;2.40;;;1.50;;
66145;SDS011;52948;60.040;30.320;2023-07-08T12:52:02;1.80;;;1.40;;
66145;SDS011;52948;60.040;30.320;2023-07-08T12:57:04;2.15;;;1.58;;
66145;SDS011;52948;60.040;30.320;2023-07-08T13:02:25;3.88;;;1.70;;
66145;SDS011;52948;60.040;30.320;2023-07-08T13:12:36;2.50;;;1.38;;
66145;SDS011;52948;60.040;30.320;2023-07-08T13:17:41;4.22;;;1.90;;
66145;SDS011;52948;60.040;30.320;2023-07-08T13:22:46;3.63;;;1.77;;
66145;SDS011;52948;60.040;30.320;2023-07-08T13:27:57;1.58;;;1.30;;
66145;SDS011;52948;60.040;30.320;2023-07-08T13:33:00;3.47;;;1.50;;
66145;SDS011;52948;60.040;30.320;2023-07-08T13:38:03;1.30;;;1.20;;
66145;SDS011;52948;60.040;30.320;2023-07-08T13:43:06;1.33;;;1.23;;
66145;SDS011;52948;60.040;30.320;2023-07-08T13:48:13;1.75;;;1.35;;
66145;SDS011;52948;60.040;30.320;2023-07-08T13:53:28;1.98;;;1.27;;
66145;SDS011;52948;60.040;30.320;2023-07-08T13:58:45;1.67;;;1.20;;
66145;SDS011;52948;60.040;30.320;2023-07-08T14:03:51;2.40;;;2.00;;
66145;SDS011;52948;60.040;30.320;2023-07-08T14:08:56;2.60;;;1.50;;
66145;SDS011;52948;60.040;30.320;2023-07-08T14:14:00;2.22;;;1.33;;
66145;SDS011;52948;60.040;30.320;2023-07-08T14:19:03;4.40;;;1.95;;
66145;SDS011;52948;60.040;30.320;2023-07-08T14:24:12;4.00;;;1.52;;
66145;SDS011;52948;60.040;30.320;2023-07-08T14:29:15;5.03;;;1.70;;
66145;SDS011;52948;60.040;30.320;2023-07-08T14:34:20;2.85;;;1.90;;
66145;SDS011;52948;60.040;30.320;2023-07-08T14:39:25;1.73;;;1.60;;
66145;SDS011;52948;60.040;30.320;2023-07-08T14:44:32;3.38;;;1.90;;
66145;SDS011;52948;60.040;30.320;2023-07-08T14:49:35;2.25;;;1.90;;
66145;SDS011;52948;60.040;30.320;2023-07-08T14:54:38;4.00;;;2.10;;
66145;SDS011;52948;60.040;30.320;2023-07-08T14:59:40;3.58;;;2.47;;
66145;SDS011;52948;60.040;30.320;2023-07-08T15:04:42;4.63;;;2.78;;
66145;SDS011;52948;60.040;30.320;2023-07-08T15:09:45;4.00;;;1.83;;
66145;SDS011;52948;60.040;30.320;2023-07-08T15:14:47;3.10;;;1.73;;
66145;SDS011;52948;60.040;30.320;2023-07-08T15:19:50;3.50;;;2.40;;
66145;SDS011;52948;60.040;30.320;2023-07-08T15:24:52;1.70;;;1.60;;
66145;SDS011;52948;60.040;30.320;2023-07-08T15:29:54;2.38;;;1.50;;
66145;SDS011;52948;60.040;30.320;2023-07-08T15:34:57;3.60;;;1.70;;
66145;SDS011;52948;60.040;30.320;2023-07-08T15:39:59;2.97;;;2.25;;
66145;SDS011;52948;60.040;30.320;2023-07-08T15:45:14;3.28;;;2.15;;
66145;SDS011;52948;60.040;30.320;2023-07-08T15:50:25;3.92;;;1.92;;
66145;SDS011;52948;60.040;30.320;2023-07-08T15:55:28;10.50;;;3.00;;
66145;SDS011;52948;60.040;30.320;2023-07-08T16:00:33;3.85;;;2.22;;
66145;SDS011;52948;60.040;30.320;2023-07-08T16:05:36;1.88;;;1.70;;
66145;SDS011;52948;60.040;30.320;2023-07-08T16:10:39;3.38;;;2.25;;
66145;SDS011;52948;60.040;30.320;2023-07-08T16:15:41;5.43;;;2.35;;
66145;SDS011;52948;60.040;30.320;2023-07-08T16:20:44;4.25;;;2.30;;
66145;SDS011;52948;60.040;30.320;2023-07-08T16:25:47;4.22;;;1.95;;
66145;SDS011;52948;60.040;30.320;2023-07-08T16:30:50;3.80;;;2.78;;
66145;SDS011;52948;60.040;30.320;2023-07-08T16:35:52;4.47;;;2.15;;
66145;SDS011;52948;60.040;30.320;2023-07-08T16:40:55;9.18;;;3.55;;
66145;SDS011;52948;60.040;30.320;2023-07-08T16:45:58;4.03;;;2.63;;
66145;SDS011;52948;60.040;30.320;2023-07-08T16:51:00;6.03;;;3.10;;
66145;SDS011;52948;60.040;30.320;2023-07-08T16:56:02;4.03;;;2.72;;
66145;SDS011;52948;60.040;30.320;2023-07-08T17:01:05;5.90;;;3.50;;
66145;SDS011;52948;60.040;30.320;2023-07-08T17:06:12;3.40;;;2.35;;
66145;SDS011;52948;60.040;30.320;2023-07-08T17:11:16;4.38;;;3.00;;
66145;SDS011;52948;60.040;30.320;2023-07-08T17:16:19;4.00;;;2.70;;
66145;SDS011;52948;60.040;30.320;2023-07-08T17:21:28;5.68;;;3.00;;
66145;SDS011;52948;60.040;30.320;2023-07-08T17:26:30;6.20;;;3.80;;
66145;SDS011;52948;60.040;30.320;2023-07-08T17:31:32;6.32;;;3.38;;
66145;SDS011;52948;60.040;30.320;2023-07-08T17:36:35;5.10;;;3.00;;
66145;SDS011;52948;60.040;30.320;2023-07-08T17:41:39;3.80;;;3.00;;
66145;SDS011;52948;60.040;30.320;2023-07-08T17:46:41;2.78;;;2.45;;
66145;SDS011;52948;60.040;30.320;2023-07-08T17:51:43;4.85;;;2.35;;
66145;SDS011;52948;60.040;30.320;2023-07-08T17:56:46;4.20;;;2.35;;
66145;SDS011;52948;60.040;30.320;2023-07-08T18:01:49;4.15;;;2.80;;
66145;SDS011;52948;60.040;30.320;2023-07-08T18:06:52;3.67;;;2.45;;
66145;SDS011;52948;60.040;30.320;2023-07-08T18:11:54;4.50;;;2.13;;
66145;SDS011;52948;60.040;30.320;2023-07-08T18:16:58;5.05;;;2.63;;
66145;SDS011;52948;60.040;30.320;2023-07-08T18:22:01;2.70;;;2.05;;
66145;SDS011;52948;60.040;30.320;2023-07-08T18:27:04;4.43;;;2.70;;
66145;SDS011;52948;60.040;30.320;2023-07-08T18:32:10;4.57;;;2.40;;
66145;SDS011;52948;60.040;30.320;2023-07-08T18:37:12;2.92;;;1.98;;
66145;SDS011;52948;60.040;30.320;2023-07-08T18:42:15;3.20;;;2.35;;
66145;SDS011;52948;60.040;30.320;2023-07-08T18:47:17;4.53;;;2.60;;
66145;SDS011;52948;60.040;30.320;2023-07-08T18:52:19;3.28;;;2.20;;
66145;SDS011;52948;60.040;30.320;2023-07-08T18:57:21;3.72;;;2.60;;
66145;SDS011;52948;60.040;30.320;2023-07-08T19:02:33;3.67;;;2.50;;
66145;SDS011;52948;60.040;30.320;2023-07-08T19:07:36;4.15;;;2.40;;
66145;SDS011;52948;60.040;30.320;2023-07-08T19:12:38;3.80;;;2.30;;
66145;SDS011;52948;60.040;30.320;2023-07-08T19:17:40;4.00;;;2.72;;
66145;SDS011;52948;60.040;30.320;2023-07-08T19:22:42;3.83;;;2.20;;
66145;SDS011;52948;60.040;30.320;2023-07-08T19:27:46;3.35;;;2.20;;
66145;SDS011;52948;60.040;30.320;2023-07-08T19:32:52;5.15;;;1.90;;
66145;SDS011;52948;60.040;30.320;2023-07-08T19:37:57;3.13;;;1.90;;
66145;SDS011;52948;60.040;30.320;2023-07-08T19:42:59;7.15;;;2.20;;
66145;SDS011;52948;60.040;30.320;2023-07-08T19:48:01;3.83;;;1.98;;
66145;SDS011;52948;60.040;30.320;2023-07-08T19:53:04;3.53;;;2.10;;
66145;SDS011;52948;60.040;30.320;2023-07-08T19:58:10;2.88;;;2.05;;
66145;SDS011;52948;60.040;30.320;2023-07-08T20:03:14;3.28;;;2.10;;
66145;SDS011;52948;60.040;30.320;2023-07-08T20:13:20;3.97;;;2.60;;
66145;SDS011;52948;60.040;30.320;2023-07-08T20:18:27;3.60;;;2.25;;
66145;SDS011;52948;60.040;30.320;2023-07-08T20:23:33;4.78;;;2.25;;
66145;SDS011;52948;60.040;30.320;2023-07-08T20:28:36;4.38;;;2.40;;
66145;SDS011;52948;60.040;30.320;2023-07-08T20:33:38;3.67;;;1.92;;
66145;SDS011;52948;60.040;30.320;2023-07-08T20:38:40;2.20;;;2.00;;
66145;SDS011;52948;60.040;30.320;2023-07-08T20:43:42;2.45;;;2.05;;
66145;SDS011;52948;60.040;30.320;2023-07-08T20:48:46;2.92;;;1.65;;
66145;SDS011;52948;60.040;30.320;2023-07-08T20:53:49;3.88;;;1.80;;
66145;SDS011;52948;60.040;30.320;2023-07-08T20:58:55;2.95;;;1.90;;
66145;SDS011;52948;60.040;30.320;2023-07-08T21:03:57;4.03;;;2.60;;
66145;SDS011;52948;60.040;30.320;2023-07-08T21:09:00;3.45;;;2.05;;
66145;SDS011;52948;60.040;30.320;2023-07-08T21:14:03;4.15;;;2.40;;
66145;SDS011;52948;60.040;30.320;2023-07-08T21:19:07;3.47;;;2.50;;
66145;SDS011;52948;60.040;30.320;2023-07-08T21:24:11;5.13;;;3.00;;
66145;SDS011;52948;60.040;30.320;2023-07-08T21:29:15;3.67;;;2.92;;
66145;SDS011;52948;60.040;30.320;2023-07-08T21:34:17;5.10;;;3.25;;
66145;SDS011;52948;60.040;30.320;2023-07-08T21:39:22;4.53;;;2.53;;
66145;SDS011;52948;60.040;30.320;2023-07-08T21:44:29;7.13;;;3.15;;
66145;SDS011;52948;60.040;30.320;2023-07-08T21:49:31;3.67;;;2.30;;
66145;SDS011;52948;60.040;30.320;2023-07-08T21:54:33;4.88;;;3.58;;
66145;SDS011;52948;60.040;30.320;2023-07-08T21:59:35;5.03;;;2.75;;
66145;SDS011;52948;60.040;30.320;2023-07-08T22:04:38;5.20;;;2.58;;
66145;SDS011;52948;60.040;30.320;2023-07-08T22:09:41;9.13;;;2.70;;
66145;SDS011;52948;60.040;30.320;2023-07-08T22:14:43;3.53;;;2.05;;
66145;SDS011;52948;60.040;30.320;2023-07-08T22:19:45;3.75;;;2.63;;
66145;SDS011;52948;60.040;30.320;2023-07-08T22:24:47;4.68;;;2.58;;
66145;SDS011;52948;60.040;30.320;2023-07-08T22:29:49;4.68;;;2.67;;
66145;SDS011;52948;60.040;30.320;2023-07-08T22:34:52;3.88;;;2.40;;
66145;SDS011;52948;60.040;30.320;2023-07-08T22:39:54;3.47;;;2.38;;
66145;SDS011;52948;60.040;30.320;2023-07-08T22:44:56;4.97;;;2.90;;
66145;SDS011;52948;60.040;30.320;2023-07-08T22:49:59;5.15;;;2.47;;
66145;SDS011;52948;60.040;30.320;2023-07-08T22:55:10;3.92;;;2.50;;
66145;SDS011;52948;60.040;30.320;2023-07-08T23:00:20;2.92;;;2.63;;
66145;SDS011;52948;60.040;30.320;2023-07-08T23:05:25;5.00;;;2.88;;
66145;SDS011;52948;60.040;30.320;2023-07-08T23:10:29;4.88;;;2.97;;
66145;SDS011;52948;60.040;30.320;2023-07-08T23:15:31;3.50;;;2.50;;
66145;SDS011;52948;60.040;30.320;2023-07-08T23:20:33;3.22;;;2.80;;
66145;SDS011;52948;60.040;30.320;2023-07-08T23:25:35;4.72;;;3.10;;
66145;SDS011;52948;60.040;30.320;2023-07-08T23:30:38;4.57;;;2.95;;
66145;SDS011;52948;60.040;30.320;2023-07-08T23:35:40;5.13;;;3.63;;
66145;SDS011;52948;60.040;30.320;2023-07-08T23:40:43;5.53;;;3.50;;
66145;SDS011;52948;60.040;30.320;2023-07-08T23:45:47;6.30;;;3.55;;
66145;SDS011;52948;60.040;30.320;2023-07-08T23:50:50;5.80;;;3.90;;
66145;SDS011;52948;60.040;30.320;2023-07-08T23:55:52;5.72;;;3.75;;
